Time;durP1;ratioP1;P1;durP2;ratioP2;P2;SDS_P1;SDS_P2;PMS_P1;PMS_P2;Temp;Humidity;BMP_temperature;BMP_pressure;BME280_temperature;BME280_humidity;BME280_pressure;Samples;Min_cycle;Max_cycle;Signal;HPM_P1;HPM_P2
2022/11/07 00:01:09;;;;;;;7.07;3.90;;;;;;;;;;5001975;28;20161;-86
2022/11/07 00:03:41;;;;;;;8.75;3.90;;;;;;;;;;5013149;28;20059;-85
2022/11/07 00:06:16;;;;;;;6.85;3.83;;;;;;;;;;5016840;28;20045;-84
2022/11/07 00:08:53;;;;;;;7.28;3.95;;;;;;;;;;5020960;28;20046;-85
2022/11/07 00:11:40;;;;;;;6.35;3.70;;;;;;;;;;5016351;28;20046;-86
2022/11/07 00:14:15;;;;;;;7.50;3.97;;;;;;;;;;5016541;28;20194;-84
2022/11/07 00:16:43;;;;;;;6.70;3.83;;;;;;;;;;5017297;28;20034;-84
2022/11/07 00:19:19;;;;;;;5.72;3.47;;;;;;;;;;5012837;28;20050;-86
2022/11/07 00:21:50;;;;;;;8.98;3.97;;;;;;;;;;5006159;28;20049;-83
2022/11/07 00:24:17;;;;;;;4.85;3.05;;;;;;;;;;5006570;28;20077;-84
2022/11/07 00:26:45;;;;;;;7.60;3.40;;;;;;;;;;5004059;28;20084;-84
2022/11/07 00:29:22;;;;;;;5.50;3.10;;;;;;;;;;4999000;28;20138;-85
2022/11/07 00:31:49;;;;;;;4.95;2.92;;;;;;;;;;4999137;28;20118;-84
2022/11/07 00:34:16;;;;;;;4.93;3.20;;;;;;;;;;4998414;28;20108;-84
2022/11/07 00:36:43;;;;;;;4.45;2.53;;;;;;;;;;5006388;28;20046;-86
2022/11/07 00:39:10;;;;;;;6.45;3.13;;;;;;;;;;5011559;28;20046;-85
2022/11/07 00:41:37;;;;;;;5.93;2.85;;;;;;;;;;4997848;28;20062;-84
2022/11/07 00:44:04;;;;;;;5.40;3.05;;;;;;;;;;5000160;28;20050;-85
2022/11/07 00:46:33;;;;;;;4.95;3.03;;;;;;;;;;5004316;28;20065;-83
2022/11/07 00:49:00;;;;;;;6.53;3.20;;;;;;;;;;4998971;28;20125;-84
2022/11/07 00:51:35;;;;;;;8.00;3.33;;;;;;;;;;4998097;28;20049;-84
2022/11/07 00:54:02;;;;;;;6.45;3.63;;;;;;;;;;4997107;28;20085;-83
2022/11/07 00:56:29;;;;;;;5.43;3.22;;;;;;;;;;4996851;28;20047;-83
2022/11/07 00:58:57;;;;;;;5.53;3.47;;;;;;;;;;4998323;28;20510;-83
2022/11/07 01:01:25;;;;;;;6.22;3.30;;;;;;;;;;4995730;28;20092;-83
2022/11/07 01:06:38;;;;;;;5.93;3.63;;;;;;;;;;5003430;28;20133;-85
2022/11/07 01:09:06;;;;;;;9.25;3.78;;;;;;;;;;4992728;28;20043;-83
2022/11/07 01:11:35;;;;;;;6.18;3.40;;;;;;;;;;4980366;28;20133;-84
2022/11/07 01:14:02;;;;;;;6.10;3.42;;;;;;;;;;4997025;28;20113;-84
2022/11/07 01:16:34;;;;;;;5.95;3.38;;;;;;;;;;5004246;28;20110;-84
2022/11/07 01:19:09;;;;;;;6.50;3.15;;;;;;;;;;4993846;28;20051;-85
2022/11/07 01:21:41;;;;;;;6.95;2.97;;;;;;;;;;4992861;28;20046;-86
2022/11/07 01:24:14;;;;;;;7.25;3.45;;;;;;;;;;4993511;28;20047;-85
2022/11/07 01:26:46;;;;;;;6.30;3.50;;;;;;;;;;5003628;28;20034;-85
2022/11/07 01:29:19;;;;;;;7.00;3.40;;;;;;;;;;5008784;28;20064;-88
2022/11/07 01:31:48;;;;;;;7.53;3.35;;;;;;;;;;5007672;28;20049;-88
2022/11/07 01:34:16;;;;;;;7.10;3.38;;;;;;;;;;4979214;28;20057;-88
2022/11/07 01:36:43;;;;;;;5.85;3.15;;;;;;;;;;4981105;28;20110;-84
2022/11/07 01:39:10;;;;;;;6.80;3.08;;;;;;;;;;4981408;28;20145;-82
2022/11/07 01:41:37;;;;;;;7.43;3.30;;;;;;;;;;4978918;28;20062;-85
2022/11/07 01:44:06;;;;;;;9.30;3.33;;;;;;;;;;4992889;28;20058;-86
2022/11/07 01:46:37;;;;;;;6.90;3.40;;;;;;;;;;4989251;28;20054;-83
2022/11/07 01:49:22;;;;;;;5.13;2.80;;;;;;;;;;4989517;28;20047;-87
2022/11/07 01:52:04;;;;;;;5.75;3.05;;;;;;;;;;4976139;28;20407;-85
2022/11/07 01:54:33;;;;;;;6.47;3.03;;;;;;;;;;4979326;28;20049;-88
2022/11/07 01:57:02;;;;;;;8.60;3.42;;;;;;;;;;4982491;28;20133;-86
2022/11/07 01:59:30;;;;;;;10.15;2.97;;;;;;;;;;4975855;28;20047;-85
2022/11/07 02:01:57;;;;;;;6.90;2.90;;;;;;;;;;4989574;28;20051;-85
2022/11/07 02:04:26;;;;;;;7.57;3.05;;;;;;;;;;5003645;28;20416;-84
2022/11/07 02:07:00;;;;;;;5.82;3.25;;;;;;;;;;5011873;28;20100;-84
2022/11/07 02:09:27;;;;;;;7.10;3.17;;;;;;;;;;5015210;28;20049;-85
2022/11/07 02:11:53;;;;;;;5.93;2.92;;;;;;;;;;5015948;28;20057;-85
2022/11/07 02:14:20;;;;;;;5.97;3.05;;;;;;;;;;5007056;28;20050;-86
2022/11/07 02:16:46;;;;;;;5.70;3.10;;;;;;;;;;4991416;28;20073;-85
2022/11/07 02:19:19;;;;;;;6.47;2.85;;;;;;;;;;4993321;28;20054;-86
2022/11/07 02:21:50;;;;;;;5.88;2.92;;;;;;;;;;4993490;28;20051;-84
2022/11/07 02:24:31;;;;;;;6.68;2.90;;;;;;;;;;5000268;28;20072;-84
2022/11/07 02:27:01;;;;;;;5.05;2.90;;;;;;;;;;4995698;28;20595;-84
2022/11/07 02:29:28;;;;;;;5.13;2.85;;;;;;;;;;5003219;28;20141;-84
2022/11/07 02:32:05;;;;;;;6.22;3.28;;;;;;;;;;5000054;28;20093;-84
2022/11/07 02:34:32;;;;;;;6.32;2.97;;;;;;;;;;5008240;28;20073;-85
2022/11/07 02:36:59;;;;;;;5.63;2.88;;;;;;;;;;5012212;28;20042;-83
2022/11/07 02:39:26;;;;;;;4.68;2.72;;;;;;;;;;5010195;28;20138;-85
2022/11/07 02:41:53;;;;;;;6.65;2.70;;;;;;;;;;5001391;28;20065;-85
2022/11/07 02:44:20;;;;;;;4.10;2.50;;;;;;;;;;4999224;28;20072;-86
2022/11/07 02:46:46;;;;;;;6.60;2.70;;;;;;;;;;5000091;28;20054;-85
2022/11/07 02:49:13;;;;;;;6.50;2.50;;;;;;;;;;5000352;28;20471;-86
2022/11/07 02:51:39;;;;;;;5.43;2.60;;;;;;;;;;4997961;28;20077;-83
2022/11/07 02:54:09;;;;;;;5.68;2.88;;;;;;;;;;4999345;28;20050;-86
2022/11/07 02:56:35;;;;;;;7.15;2.92;;;;;;;;;;4997576;28;20058;-85
2022/11/07 02:59:02;;;;;;;4.78;2.53;;;;;;;;;;4997101;28;20061;-86
2022/11/07 03:01:28;;;;;;;7.18;2.60;;;;;;;;;;4997556;28;20051;-86
2022/11/07 03:03:55;;;;;;;5.30;2.67;;;;;;;;;;5004472;28;20510;-85
2022/11/07 03:06:23;;;;;;;7.35;2.97;;;;;;;;;;5011168;28;20140;-85
2022/11/07 03:08:50;;;;;;;6.13;2.75;;;;;;;;;;5018767;28;20117;-85
2022/11/07 03:11:20;;;;;;;5.43;2.72;;;;;;;;;;5019145;28;20398;-85
2022/11/07 03:13:47;;;;;;;5.78;2.70;;;;;;;;;;5026468;28;20046;-84
2022/11/07 03:16:14;;;;;;;3.75;2.25;;;;;;;;;;5010676;28;20064;-85
2022/11/07 03:18:41;;;;;;;6.75;2.80;;;;;;;;;;5001209;28;20081;-85
2022/11/07 03:21:08;;;;;;;4.50;2.60;;;;;;;;;;4999280;28;20054;-85
2022/11/07 03:23:35;;;;;;;4.93;2.60;;;;;;;;;;4980458;28;20066;-82
2022/11/07 03:26:02;;;;;;;7.65;2.75;;;;;;;;;;4981404;28;20078;-84
2022/11/07 03:28:29;;;;;;;6.50;3.00;;;;;;;;;;4995478;28;20047;-84
2022/11/07 03:30:58;;;;;;;8.27;3.05;;;;;;;;;;4987819;28;20058;-82
2022/11/07 03:33:25;;;;;;;6.60;2.80;;;;;;;;;;4983363;28;20074;-85
2022/11/07 03:35:52;;;;;;;5.55;2.65;;;;;;;;;;4995988;28;20061;-85
2022/11/07 03:38:18;;;;;;;4.82;2.40;;;;;;;;;;4978197;28;20042;-84
2022/11/07 03:40:45;;;;;;;6.88;2.92;;;;;;;;;;4978579;28;20424;-85
2022/11/07 03:43:12;;;;;;;5.22;2.53;;;;;;;;;;4979066;28;20081;-84
2022/11/07 03:45:38;;;;;;;4.57;2.70;;;;;;;;;;4980628;28;20145;-85
2022/11/07 03:48:05;;;;;;;4.55;2.80;;;;;;;;;;4993806;28;20157;-87
2022/11/07 03:50:31;;;;;;;7.88;2.70;;;;;;;;;;4997375;28;20082;-83
2022/11/07 03:53:01;;;;;;;4.22;2.97;;;;;;;;;;5011426;28;20050;-85
2022/11/07 03:55:27;;;;;;;9.13;3.22;;;;;;;;;;4986804;28;20058;-87
2022/11/07 03:57:57;;;;;;;5.97;3.20;;;;;;;;;;4986839;28;20074;-85
2022/11/07 04:00:23;;;;;;;6.32;3.08;;;;;;;;;;4997923;28;20034;-84
2022/11/07 04:02:52;;;;;;;6.68;2.80;;;;;;;;;;4998425;28;20047;-84
2022/11/07 04:05:19;;;;;;;7.50;3.50;;;;;;;;;;5025233;28;20113;-84
2022/11/07 04:07:45;;;;;;;8.10;3.00;;;;;;;;;;5035905;28;20050;-83
2022/11/07 04:10:12;;;;;;;5.40;3.17;;;;;;;;;;5035809;28;20053;-85
2022/11/07 04:18:09;;;;;;;8.33;3.83;;;;;;;;;;5030876;28;20280;-84
2022/11/07 04:20:36;;;;;;;7.00;3.63;;;;;;;;;;5030975;28;20803;-84
2022/11/07 04:23:04;;;;;;;7.20;3.90;;;;;;;;;;5031617;28;20050;-85
2022/11/07 04:28:16;;;;;;;9.93;4.18;;;;;;;;;;5018600;28;20092;-86
2022/11/07 04:30:43;;;;;;;9.18;3.97;;;;;;;;;;5018608;28;20042;-87
2022/11/07 04:33:10;;;;;;;9.15;3.50;;;;;;;;;;5020721;28;20050;-86
2022/11/07 04:35:37;;;;;;;9.57;4.20;;;;;;;;;;4997296;28;20058;-86
2022/11/07 04:38:04;;;;;;;10.32;4.28;;;;;;;;;;4998067;28;20081;-86
2022/11/07 04:40:33;;;;;;;6.82;3.75;;;;;;;;;;4997372;28;20141;-86
2022/11/07 04:43:00;;;;;;;8.68;3.60;;;;;;;;;;4995907;28;20054;-86
2022/11/07 04:45:26;;;;;;;9.65;3.80;;;;;;;;;;4995984;28;20051;-85
2022/11/07 04:47:53;;;;;;;5.97;3.30;;;;;;;;;;4995867;28;20057;-86
2022/11/07 04:50:22;;;;;;;5.68;3.35;;;;;;;;;;4996782;28;20117;-87
2022/11/07 04:52:49;;;;;;;6.25;3.40;;;;;;;;;;4995916;28;20047;-86
2022/11/07 04:55:21;;;;;;;6.20;3.47;;;;;;;;;;4999924;28;20399;-83
2022/11/07 04:57:47;;;;;;;6.78;3.47;;;;;;;;;;4997514;28;20050;-86
2022/11/07 05:00:14;;;;;;;7.10;3.85;;;;;;;;;;5005904;28;20090;-87
2022/11/07 05:02:41;;;;;;;6.18;3.58;;;;;;;;;;5004333;28;20062;-86
2022/11/07 05:05:08;;;;;;;6.88;3.65;;;;;;;;;;5015691;28;20148;-85
2022/11/07 05:07:34;;;;;;;5.68;3.25;;;;;;;;;;5016928;28;20137;-86
2022/11/07 05:10:01;;;;;;;5.28;2.92;;;;;;;;;;5017567;28;20418;-87
2022/11/07 05:12:27;;;;;;;5.35;3.28;;;;;;;;;;5026294;28;20510;-86
2022/11/07 05:14:54;;;;;;;7.43;3.38;;;;;;;;;;5004240;28;20050;-86
2022/11/07 05:17:20;;;;;;;8.02;3.45;;;;;;;;;;5002104;28;20112;-86
2022/11/07 05:19:58;;;;;;;8.15;3.75;;;;;;;;;;5012764;28;20050;-86
2022/11/07 05:25:10;;;;;;;6.30;3.00;;;;;;;;;;4994875;28;20043;-84
2022/11/07 05:27:36;;;;;;;9.52;3.45;;;;;;;;;;4994374;28;20078;-86
2022/11/07 05:30:03;;;;;;;7.47;3.30;;;;;;;;;;4992622;28;20050;-84
2022/11/07 05:32:32;;;;;;;8.10;3.60;;;;;;;;;;4992595;28;20100;-84
2022/11/07 05:34:59;;;;;;;6.65;3.63;;;;;;;;;;4992018;28;20072;-85
2022/11/07 05:37:25;;;;;;;6.57;3.53;;;;;;;;;;4992410;28;20092;-84
2022/11/07 05:39:52;;;;;;;6.57;3.55;;;;;;;;;;4990370;28;20129;-85
2022/11/07 05:42:20;;;;;;;7.75;3.80;;;;;;;;;;4990861;28;20052;-88
2022/11/07 05:44:49;;;;;;;9.00;3.60;;;;;;;;;;4992292;28;20145;-86
2022/11/07 05:47:16;;;;;;;6.57;3.53;;;;;;;;;;4991605;28;20078;-87
2022/11/07 05:49:42;;;;;;;7.75;4.20;;;;;;;;;;4990278;28;20670;-88
2022/11/07 05:52:09;;;;;;;8.52;3.60;;;;;;;;;;4993719;28;20485;-87
2022/11/07 05:54:35;;;;;;;7.22;3.83;;;;;;;;;;4993795;28;20077;-84
2022/11/07 05:57:02;;;;;;;7.00;3.85;;;;;;;;;;4995310;28;20060;-84
2022/11/07 05:59:28;;;;;;;6.13;3.30;;;;;;;;;;4992471;28;20128;-85
2022/11/07 06:02:11;;;;;;;6.50;3.28;;;;;;;;;;4991588;28;20073;-85
2022/11/07 06:05:18;;;;;;;6.28;3.42;;;;;;;;;;4989899;28;20151;-85
2022/11/07 06:08:10;;;;;;;7.05;3.83;;;;;;;;;;4972638;28;20142;-87
2022/11/07 06:10:41;;;;;;;6.35;3.35;;;;;;;;;;4971722;28;20072;-85
2022/11/07 06:13:31;;;;;;;6.68;3.00;;;;;;;;;;4971677;28;20046;-85
2022/11/07 06:16:14;;;;;;;6.68;3.30;;;;;;;;;;4971391;28;20116;-85
2022/11/07 06:19:15;;;;;;;6.88;3.33;;;;;;;;;;4971661;28;20045;-85
2022/11/07 06:21:54;;;;;;;7.65;3.30;;;;;;;;;;4971849;28;20567;-86
2022/11/07 06:25:04;;;;;;;6.45;3.28;;;;;;;;;;4971273;28;20126;-84
2022/11/07 06:31:19;;;;;;;6.15;3.17;;;;;;;;;;4965536;28;20051;-84
2022/11/07 06:33:49;;;;;;;5.55;2.78;;;;;;;;;;4975516;28;20468;-83
2022/11/07 06:36:16;;;;;;;6.13;2.58;;;;;;;;;;4976040;28;20047;-86
2022/11/07 06:39:12;;;;;;;6.90;2.95;;;;;;;;;;4972402;28;20053;-85
2022/11/07 06:42:26;;;;;;;6.07;3.10;;;;;;;;;;4884582;29;20064;-85
2022/11/07 06:45:06;;;;;;;5.68;3.13;;;;;;;;;;4898823;29;20052;-86
2022/11/07 06:47:32;;;;;;;5.55;3.00;;;;;;;;;;4912192;29;20080;-82
2022/11/07 06:50:04;;;;;;;5.32;2.90;;;;;;;;;;4901322;29;20045;-86
2022/11/07 06:52:34;;;;;;;7.55;3.05;;;;;;;;;;4899721;29;20589;-87
2022/11/07 06:55:13;;;;;;;6.18;3.70;;;;;;;;;;4899569;29;20048;-85
2022/11/07 06:57:42;;;;;;;5.30;3.15;;;;;;;;;;4900656;29;20059;-87
2022/11/07 07:00:36;;;;;;;8.88;3.53;;;;;;;;;;4951461;28;20130;-87
2022/11/07 07:03:12;;;;;;;6.28;3.20;;;;;;;;;;4978630;28;20050;-84
2022/11/07 07:05:46;;;;;;;5.57;3.33;;;;;;;;;;5005617;28;20058;-85
2022/11/07 07:08:29;;;;;;;8.98;3.70;;;;;;;;;;5014689;28;20552;-87
2022/11/07 07:11:03;;;;;;;8.25;4.00;;;;;;;;;;5014370;28;20081;-87
2022/11/07 07:13:31;;;;;;;7.83;3.47;;;;;;;;;;5016096;28;20053;-84
2022/11/07 07:16:02;;;;;;;7.78;4.05;;;;;;;;;;5019812;28;20049;-84
2022/11/07 07:18:45;;;;;;;5.38;3.20;;;;;;;;;;5016485;28;20049;-86
2022/11/07 07:21:15;;;;;;;7.82;3.90;;;;;;;;;;5018720;28;20054;-84
2022/11/07 07:23:42;;;;;;;6.18;3.42;;;;;;;;;;5018715;28;20046;-80
2022/11/07 07:26:17;;;;;;;5.55;2.80;;;;;;;;;;5018663;28;20060;-85
2022/11/07 07:29:21;;;;;;;6.40;3.22;;;;;;;;;;5015309;28;20197;-85
2022/11/07 07:31:47;;;;;;;6.60;3.28;;;;;;;;;;5019153;28;20056;-82
2022/11/07 07:34:31;;;;;;;6.72;3.00;;;;;;;;;;5027749;28;20050;-86
2022/11/07 07:36:57;;;;;;;7.57;3.42;;;;;;;;;;5031389;28;20046;-85
2022/11/07 07:39:45;;;;;;;6.45;2.88;;;;;;;;;;5030541;28;20459;-87
2022/11/07 07:46:02;;;;;;;6.57;2.85;;;;;;;;;;5023665;28;20057;-88
2022/11/07 07:48:56;;;;;;;6.15;2.70;;;;;;;;;;5003171;28;20057;-86
2022/11/07 07:51:31;;;;;;;5.90;2.70;;;;;;;;;;5012200;28;20049;-82
2022/11/07 07:54:21;;;;;;;4.90;2.70;;;;;;;;;;5018046;28;20046;-84
2022/11/07 08:00:42;;;;;;;;;;;;;;;;;;;;;
2022/11/07 08:07:09;;;;;;;5.55;2.92;;;;;;;;;;4818182;29;20066;-82
2022/11/07 08:10:12;;;;;;;;;;;;;;;;;;;;;
2022/11/07 08:12:58;;;;;;;6.22;2.58;;;;;;;;;;4872275;29;20333;-85
2022/11/07 08:15:54;;;;;;;5.45;2.65;;;;;;;;;;4879207;29;20049;-86
2022/11/07 08:22:06;;;;;;;3.90;2.25;;;;;;;;;;4925900;28;20043;-86
2022/11/07 08:24:51;;;;;;;5.40;2.20;;;;;;;;;;4965629;28;20123;-83
2022/11/07 08:27:18;;;;;;;5.55;2.30;;;;;;;;;;4951553;29;20527;-83
2022/11/07 08:29:47;;;;;;;2.92;1.80;;;;;;;;;;4966305;28;20047;-83
2022/11/07 08:42:00;;;;;;;3.83;1.52;;;;;;;;;;4822726;29;20054;-82
2022/11/07 08:44:35;;;;;;;3.95;1.52;;;;;;;;;;4930291;29;20048;-82
2022/11/07 08:47:09;;;;;;;;;;;;;;;;;;4916252;29;20067;-81
2022/11/07 08:49:37;;;;;;;7.68;1.63;;;;;;;;;;4916354;29;19923;-86
2022/11/07 08:52:03;;;;;;;5.75;1.80;;;;;;;;;;4931160;29;20080;-86
2022/11/07 08:54:51;;;;;;;5.32;1.73;;;;;;;;;;4925262;29;20079;-87
2022/11/07 08:57:24;;;;;;;5.05;1.65;;;;;;;;;;4921151;29;20188;-88
2022/11/07 09:00:00;;;;;;;5.78;1.50;;;;;;;;;;4920866;29;20075;-87
2022/11/07 09:02:53;;;;;;;3.95;1.42;;;;;;;;;;4920663;29;20326;-84
2022/11/07 09:06:10;;;;;;;5.47;1.73;;;;;;;;;;4928059;29;20064;-88
2022/11/07 09:08:48;;;;;;;3.58;1.45;;;;;;;;;;4892436;29;20048;-87
2022/11/07 09:11:20;;;;;;;3.60;1.50;;;;;;;;;;4901602;29;20095;-88
2022/11/07 09:13:47;;;;;;;6.35;1.73;;;;;;;;;;4918866;29;20051;-87
2022/11/07 09:16:16;;;;;;;4.85;1.67;;;;;;;;;;4972735;28;20118;-85
2022/11/07 09:19:12;;;;;;;5.05;1.58;;;;;;;;;;4998766;28;20043;-88
2022/11/07 09:21:53;;;;;;;4.50;1.60;;;;;;;;;;4960390;28;20075;-87
2022/11/07 09:24:19;;;;;;;5.20;1.42;;;;;;;;;;4940153;29;20082;-87
2022/11/07 09:26:51;;;;;;;5.00;1.20;;;;;;;;;;4941810;28;20059;-87
2022/11/07 09:29:19;;;;;;;8.40;1.80;;;;;;;;;;4958554;28;20047;-85
2022/11/07 09:31:49;;;;;;;7.30;1.50;;;;;;;;;;4959946;29;20496;-84
2022/11/07 09:34:18;;;;;;;5.55;1.48;;;;;;;;;;4949650;29;20135;-82
2022/11/07 09:36:44;;;;;;;6.43;1.40;;;;;;;;;;4951035;29;20070;-86
2022/11/07 09:39:10;;;;;;;5.55;1.20;;;;;;;;;;4934975;28;20054;-84
2022/11/07 09:41:55;;;;;;;7.50;1.20;;;;;;;;;;4935453;29;20078;-86
2022/11/07 09:44:22;;;;;;;4.05;1.10;;;;;;;;;;4953353;28;20083;-85
2022/11/07 09:46:56;;;;;;;5.43;1.60;;;;;;;;;;4958810;29;20051;-87
2022/11/07 09:49:25;;;;;;;7.38;1.70;;;;;;;;;;4940799;29;20051;-87
2022/11/07 09:52:11;;;;;;;5.68;1.55;;;;;;;;;;4941822;29;20098;-84
2022/11/07 09:54:41;;;;;;;7.15;1.48;;;;;;;;;;4955032;28;20047;-87
2022/11/07 09:57:14;;;;;;;4.80;1.40;;;;;;;;;;4955529;28;20047;-86
2022/11/07 09:59:43;;;;;;;5.57;1.52;;;;;;;;;;4982345;28;20134;-85
2022/11/07 10:02:20;;;;;;;7.55;1.40;;;;;;;;;;4996003;28;20050;-87
2022/11/07 10:04:58;;;;;;;4.25;1.40;;;;;;;;;;5012891;28;20050;-86
2022/11/07 10:07:53;;;;;;;6.05;1.35;;;;;;;;;;4994961;28;20046;-86
2022/11/07 10:10:27;;;;;;;4.15;1.35;;;;;;;;;;4998236;28;20534;-88
2022/11/07 10:13:11;;;;;;;8.18;1.77;;;;;;;;;;4997940;28;20116;-86
2022/11/07 10:15:53;;;;;;;5.00;1.40;;;;;;;;;;4994863;28;20054;-88
2022/11/07 10:18:42;;;;;;;5.65;1.55;;;;;;;;;;4996512;28;20082;-88
2022/11/07 10:21:20;;;;;;;5.18;1.50;;;;;;;;;;5006367;28;20042;-85
2022/11/07 10:24:26;;;;;;;6.40;1.30;;;;;;;;;;5008471;28;20054;-87
2022/11/07 10:27:37;;;;;;;7.97;1.52;;;;;;;;;;4973908;28;20510;-87
2022/11/07 10:30:29;;;;;;;6.25;1.13;;;;;;;;;;4919076;29;20573;-82
2022/11/07 10:33:25;;;;;;;4.13;1.17;;;;;;;;;;4918376;29;20052;-87
2022/11/07 10:36:23;;;;;;;4.85;1.58;;;;;;;;;;4908177;29;20131;-86
2022/11/07 10:38:56;;;;;;;6.00;1.33;;;;;;;;;;4904921;29;20052;-88
2022/11/07 10:41:46;;;;;;;3.90;1.20;;;;;;;;;;4919477;29;20627;-85
2022/11/07 10:44:17;;;;;;;6.18;1.20;;;;;;;;;;4916606;29;20255;-83
2022/11/07 10:46:55;;;;;;;4.57;1.30;;;;;;;;;;4906326;29;20059;-84
2022/11/07 10:49:33;;;;;;;6.75;1.40;;;;;;;;;;4909889;29;20101;-85
2022/11/07 10:52:44;;;;;;;;;;;;;;;;;;;;;
2022/11/07 10:55:45;;;;;;;7.13;1.00;;;;;;;;;;4920125;29;20068;-84
2022/11/07 10:58:15;;;;;;;5.57;1.17;;;;;;;;;;4902702;29;20048;-82
2022/11/07 11:00:43;;;;;;;5.63;1.10;;;;;;;;;;4920104;29;20128;-82
2022/11/07 11:03:16;;;;;;;4.38;1.08;;;;;;;;;;4911470;29;20082;-86
2022/11/07 11:05:45;;;;;;;7.95;1.30;;;;;;;;;;4957998;28;20077;-87
2022/11/07 11:08:38;;;;;;;7.85;1.88;;;;;;;;;;5025659;28;20069;-85
2022/11/07 11:11:22;;;;;;;5.53;1.20;;;;;;;;;;5022169;28;20057;-87
2022/11/07 11:14:02;;;;;;;6.38;1.35;;;;;;;;;;5017038;28;20068;-84
2022/11/07 11:17:20;;;;;;;4.70;1.35;;;;;;;;;;4989905;28;20050;-87
2022/11/07 11:20:40;;;;;;;5.10;1.23;;;;;;;;;;4964052;28;20055;-86
2022/11/07 11:23:55;;;;;;;6.82;1.50;;;;;;;;;;4895778;29;20048;-87
2022/11/07 11:30:20;;;;;;;5.70;1.15;;;;;;;;;;4867136;29;20045;-86
2022/11/07 11:33:11;;;;;;;9.05;1.00;;;;;;;;;;4863960;29;20426;-86
2022/11/07 11:39:36;;;;;;;7.32;1.15;;;;;;;;;;4804284;29;20521;-86
2022/11/07 11:42:25;;;;;;;7.90;1.13;;;;;;;;;;4800944;29;20051;-86
2022/11/07 11:45:22;;;;;;;4.20;1.00;;;;;;;;;;4747268;30;20091;-86
2022/11/07 11:48:20;;;;;;;2.97;0.90;;;;;;;;;;4735502;30;20069;-85
2022/11/07 11:51:15;;;;;;;4.88;1.00;;;;;;;;;;4739167;30;20095;-87
2022/11/07 11:57:35;;;;;;;4.55;1.10;;;;;;;;;;4694576;30;20057;-87
2022/11/07 12:00:47;;;;;;;4.13;1.15;;;;;;;;;;4714804;30;20067;-87
2022/11/07 12:03:55;;;;;;;5.53;0.98;;;;;;;;;;4737783;30;20091;-86
2022/11/07 12:06:36;;;;;;;7.68;1.10;;;;;;;;;;4757868;30;20059;-86
2022/11/07 12:09:39;;;;;;;5.18;1.05;;;;;;;;;;4816665;29;20082;-85
2022/11/07 12:12:32;;;;;;;6.38;0.93;;;;;;;;;;4877297;29;20060;-87
2022/11/07 12:15:14;;;;;;;9.57;1.25;;;;;;;;;;4890796;29;20061;-86
2022/11/07 12:17:43;;;;;;;4.85;1.20;;;;;;;;;;4942267;29;20070;-87
2022/11/07 12:20:23;;;;;;;8.70;0.95;;;;;;;;;;4939302;29;20575;-88
2022/11/07 12:23:14;;;;;;;9.50;1.58;;;;;;;;;;4925319;29;20047;-87
2022/11/07 12:25:57;;;;;;;4.47;0.93;;;;;;;;;;5009316;28;20057;-86
2022/11/07 12:35:48;;;;;;;3.28;0.90;;;;;;;;;;5018819;28;20108;-86
2022/11/07 12:38:36;;;;;;;4.13;1.15;;;;;;;;;;5011973;28;20124;-85
2022/11/07 12:41:19;;;;;;;6.45;1.10;;;;;;;;;;5012260;28;20057;-87
2022/11/07 12:44:11;;;;;;;7.78;1.27;;;;;;;;;;5015756;28;20065;-87
2022/11/07 12:46:53;;;;;;;8.75;1.10;;;;;;;;;;4996111;28;20137;-86
2022/11/07 12:49:28;;;;;;;7.03;1.20;;;;;;;;;;4994057;28;20141;-84
2022/11/07 12:52:12;;;;;;;5.90;1.30;;;;;;;;;;4992980;28;20065;-85
2022/11/07 12:55:03;;;;;;;4.43;0.93;;;;;;;;;;4999862;28;20118;-88
2022/11/07 12:57:45;;;;;;;5.32;0.98;;;;;;;;;;4999318;28;20047;-87
2022/11/07 13:00:49;;;;;;;8.75;1.17;;;;;;;;;;4996208;28;20047;-87
2022/11/07 13:03:40;;;;;;;6.15;1.23;;;;;;;;;;4992143;28;20049;-85
2022/11/07 13:06:15;;;;;;;7.47;1.23;;;;;;;;;;4998702;28;20070;-87
2022/11/07 13:11:54;;;;;;;6.57;0.85;;;;;;;;;;5000788;28;20475;-85
2022/11/07 13:14:27;;;;;;;5.13;1.00;;;;;;;;;;4998379;28;20061;-85
2022/11/07 13:17:14;;;;;;;3.38;1.00;;;;;;;;;;4990632;28;20157;-87
2022/11/07 13:19:42;;;;;;;8.15;1.20;;;;;;;;;;4995640;28;20633;-86
2022/11/07 13:22:43;;;;;;;5.43;1.00;;;;;;;;;;4976624;28;20700;-87
2022/11/07 13:25:23;;;;;;;4.85;1.00;;;;;;;;;;4993398;28;20054;-85
2022/11/07 13:28:16;;;;;;;3.90;1.02;;;;;;;;;;4996352;28;20125;-87
2022/11/07 13:31:29;;;;;;;6.60;1.80;;;;;;;;;;4997973;28;20045;-86
2022/11/07 13:35:01;;;;;;;;;;;;;;;;;;;;;
2022/11/07 13:37:55;;;;;;;7.38;1.17;;;;;;;;;;4995638;28;20122;-87
2022/11/07 13:40:46;;;;;;;3.92;1.08;;;;;;;;;;4993261;28;20050;-86
2022/11/07 13:43:43;;;;;;;;;;;;;;;;;;;;;
2022/11/07 13:46:37;;;;;;;5.35;0.90;;;;;;;;;;4995194;28;20049;-87
2022/11/07 14:00:03;;;;;;;3.50;0.88;;;;;;;;;;4758214;30;20064;-87
2022/11/07 14:06:06;;;;;;;4.05;0.80;;;;;;;;;;4751566;30;20047;-83
2022/11/07 14:08:37;;;;;;;8.23;1.15;;;;;;;;;;4748908;30;20083;-83
2022/11/07 14:11:12;;;;;;;5.40;0.90;;;;;;;;;;4749597;30;20211;-82
2022/11/07 14:13:38;;;;;;;5.17;1.07;;;;;;;;;;4749287;30;20056;-86
2022/11/07 14:16:18;;;;;;;3.92;1.05;;;;;;;;;;4750300;30;20302;-86
2022/11/07 14:22:31;;;;;;;6.97;1.40;;;;;;;;;;4785968;29;20038;-87
2022/11/07 14:28:59;;;;;;;;;;;;;;;;;;;;;
2022/11/07 14:42:31;;;;;;;4.15;0.70;;;;;;;;;;5003334;28;20186;-86
2022/11/07 14:49:02;;;;;;;6.28;1.10;;;;;;;;;;4960421;28;20051;-85
2022/11/07 14:55:10;;;;;;;5.63;1.17;;;;;;;;;;4961624;29;20636;-86
2022/11/07 15:02:07;;;;;;;;;;;;;;;;;;;;;
2022/11/07 15:05:16;;;;;;;4.15;1.00;;;;;;;;;;4840757;29;20057;-85
2022/11/07 15:08:23;;;;;;;5.43;1.00;;;;;;;;;;4857258;29;20056;-87
2022/11/07 15:11:24;;;;;;;8.27;1.73;;;;;;;;;;4881876;29;20116;-86
2022/11/07 15:14:21;;;;;;;5.05;0.98;;;;;;;;;;4879844;29;20066;-86
2022/11/07 15:23:34;;;;;;;5.28;1.17;;;;;;;;;;4907729;29;20085;-87
2022/11/07 15:26:40;;;;;;;;;;;;;;;;;;;;;
2022/11/07 15:29:35;;;;;;;7.10;1.33;;;;;;;;;;4958775;28;20063;-88
2022/11/07 15:32:15;;;;;;;8.27;1.27;;;;;;;;;;4959663;28;20138;-86
2022/11/07 15:34:53;;;;;;;5.15;1.10;;;;;;;;;;4960429;28;20524;-84
2022/11/07 15:37:42;;;;;;;3.25;1.05;;;;;;;;;;4992897;28;20430;-84
2022/11/07 15:40:15;;;;;;;11.80;1.38;;;;;;;;;;4992237;28;20185;-84
2022/11/07 15:42:41;;;;;;;5.93;1.40;;;;;;;;;;5001245;28;20051;-85
2022/11/07 15:45:09;;;;;;;10.25;1.30;;;;;;;;;;5001639;28;20073;-85
2022/11/07 15:47:38;;;;;;;10.10;1.38;;;;;;;;;;4997152;28;20050;-86
2022/11/07 15:50:16;;;;;;;5.95;1.30;;;;;;;;;;5014089;28;20058;-84
2022/11/07 15:52:43;;;;;;;4.50;1.30;;;;;;;;;;4997742;28;20057;-84
2022/11/07 15:55:14;;;;;;;3.88;1.00;;;;;;;;;;4997182;28;20046;-84
2022/11/07 15:57:40;;;;;;;5.57;1.38;;;;;;;;;;4996995;28;20177;-84
2022/11/07 16:00:12;;;;;;;6.60;1.30;;;;;;;;;;4996457;28;20046;-85
2022/11/07 16:02:39;;;;;;;8.70;1.20;;;;;;;;;;4992617;28;20054;-86
2022/11/07 16:05:06;;;;;;;4.72;1.20;;;;;;;;;;5008379;28;20081;-84
2022/11/07 16:07:33;;;;;;;7.38;1.27;;;;;;;;;;5033442;28;20113;-84
2022/11/07 16:09:59;;;;;;;11.70;1.58;;;;;;;;;;5034377;28;20034;-84
2022/11/07 16:12:25;;;;;;;7.88;1.35;;;;;;;;;;5032892;28;20061;-85
2022/11/07 16:14:54;;;;;;;5.15;1.30;;;;;;;;;;5026096;28;20064;-85
2022/11/07 16:17:24;;;;;;;6.97;1.15;;;;;;;;;;5022704;28;20061;-85
2022/11/07 16:20:33;;;;;;;4.40;1.40;;;;;;;;;;5029899;28;20069;-84
2022/11/07 16:23:09;;;;;;;9.23;1.33;;;;;;;;;;5029126;28;20073;-84
2022/11/07 16:25:51;;;;;;;5.45;1.25;;;;;;;;;;5033092;28;20061;-83
2022/11/07 16:28:32;;;;;;;5.72;1.02;;;;;;;;;;5027689;28;20072;-85
2022/11/07 16:31:01;;;;;;;6.75;1.17;;;;;;;;;;5019137;28;20100;-86
2022/11/07 16:33:38;;;;;;;4.13;1.20;;;;;;;;;;5020296;28;20060;-85
2022/11/07 16:36:51;;;;;;;6.22;1.38;;;;;;;;;;5018996;28;20410;-86
2022/11/07 16:39:21;;;;;;;7.10;1.13;;;;;;;;;;4955636;28;20043;-81
2022/11/07 16:41:49;;;;;;;6.25;1.30;;;;;;;;;;4951898;28;20057;-83
2022/11/07 16:44:15;;;;;;;6.88;1.10;;;;;;;;;;4983136;28;20050;-84
2022/11/07 16:46:48;;;;;;;5.28;1.30;;;;;;;;;;4987535;28;20093;-83
2022/11/07 16:49:28;;;;;;;5.65;1.20;;;;;;;;;;4994999;28;20057;-82
2022/11/07 16:52:11;;;;;;;5.72;1.23;;;;;;;;;;4992418;28;20454;-82
2022/11/07 16:54:38;;;;;;;3.45;1.00;;;;;;;;;;4992095;28;20048;-83
2022/11/07 16:57:08;;;;;;;12.65;1.70;;;;;;;;;;4993654;28;20066;-81
2022/11/07 16:59:35;;;;;;;6.10;1.25;;;;;;;;;;4997750;28;20046;-82
2022/11/07 17:02:01;;;;;;;7.78;1.40;;;;;;;;;;5001764;28;20672;-82
2022/11/07 17:04:32;;;;;;;8.85;1.38;;;;;;;;;;4992673;28;20419;-83
2022/11/07 17:06:59;;;;;;;5.32;1.40;;;;;;;;;;4993502;28;20050;-81
2022/11/07 17:09:26;;;;;;;6.13;1.10;;;;;;;;;;4995951;28;20455;-79
2022/11/07 17:11:53;;;;;;;3.78;1.10;;;;;;;;;;4987778;28;20050;-82
2022/11/07 17:14:19;;;;;;;5.65;1.33;;;;;;;;;;4992617;28;20057;-84
2022/11/07 17:16:47;;;;;;;8.45;1.60;;;;;;;;;;4986189;28;20053;-83
2022/11/07 17:19:14;;;;;;;9.50;1.42;;;;;;;;;;4992018;28;20050;-81
2022/11/07 17:21:45;;;;;;;11.40;1.40;;;;;;;;;;4993534;28;20484;-81
2022/11/07 17:24:11;;;;;;;9.55;1.38;;;;;;;;;;4993097;28;20046;-81
2022/11/07 17:26:38;;;;;;;5.43;1.40;;;;;;;;;;4991549;28;20053;-82
2022/11/07 17:29:06;;;;;;;4.35;1.00;;;;;;;;;;4992462;28;20088;-82
2022/11/07 17:31:32;;;;;;;6.78;1.40;;;;;;;;;;4994638;28;20137;-80
2022/11/07 17:33:58;;;;;;;8.98;1.30;;;;;;;;;;4988217;28;20047;-81
2022/11/07 17:36:29;;;;;;;5.82;1.20;;;;;;;;;;4992873;28;20050;-81
2022/11/07 17:39:04;;;;;;;4.75;1.20;;;;;;;;;;4992187;28;20050;-81